Providence, Rhode Island
Traffic Map
Current Weather Conditions
Providence, Rhode Island
Overcast
Overcast
46°
Feels Like: 43°
Wind Chill: 43° Ceiling: 18000
Heat Index: 46° Visibility: 10mi
Dew Point: 31° Wind: 6mph
Humidity: 56% Direction: 250° (WSW)
Pressure: 30.14in Gusts: 0mph
Raw Report DataKPVD 260451Z 25005KT 10SM FEW160 BKN180 OVC250 08/M01 A3014 RMK AO2 SLP205 LAST AUGMENTED T00781006 401780072
Traffic Incident Summary
Active as of:
Severity:
Category:
InformationThere was an issue retrieving the traffic information for this location. Please try a different location or try again shortly.
Advertisements
Track Severe Weather on mobile